sensor_id;sensor_type;location;lat;lon;timestamp;temperature;humidity
9095;DHT22;4583;49.796;9.902;2023-04-24T00:09:24;13.70;96.60
9095;DHT22;4583;49.796;9.902;2023-04-24T00:19:26;13.70;96.70
9095;DHT22;4583;49.796;9.902;2023-04-24T00:29:27;13.60;96.60
9095;DHT22;4583;49.796;9.902;2023-04-24T00:39:30;13.60;96.30
9095;DHT22;4583;49.796;9.902;2023-04-24T00:49:31;13.50;96.40
9095;DHT22;4583;49.796;9.902;2023-04-24T00:59:33;13.50;96.20
9095;DHT22;4583;49.796;9.902;2023-04-24T01:09:36;13.50;96.10
9095;DHT22;4583;49.796;9.902;2023-04-24T01:19:38;13.50;95.80
9095;DHT22;4583;49.796;9.902;2023-04-24T01:29:40;13.60;95.50
9095;DHT22;4583;49.796;9.902;2023-04-24T01:39:43;13.70;95.30
9095;DHT22;4583;49.796;9.902;2023-04-24T01:49:46;13.60;94.90
9095;DHT22;4583;49.796;9.902;2023-04-24T01:59:49;13.70;95.10
9095;DHT22;4583;49.796;9.902;2023-04-24T02:09:51;13.60;95.10
9095;DHT22;4583;49.796;9.902;2023-04-24T02:19:53;13.60;95.10
9095;DHT22;4583;49.796;9.902;2023-04-24T02:29:55;13.60;95.20
9095;DHT22;4583;49.796;9.902;2023-04-24T02:39:56;13.60;95.30
9095;DHT22;4583;49.796;9.902;2023-04-24T02:49:58;13.50;95.30
9095;DHT22;4583;49.796;9.902;2023-04-24T03:00:00;13.40;95.20
9095;DHT22;4583;49.796;9.902;2023-04-24T03:10:01;13.40;95.30
9095;DHT22;4583;49.796;9.902;2023-04-24T03:20:04;13.20;95.20
9095;DHT22;4583;49.796;9.902;2023-04-24T03:30:07;13.20;95.30
9095;DHT22;4583;49.796;9.902;2023-04-24T03:40:09;13.30;95.60
9095;DHT22;4583;49.796;9.902;2023-04-24T03:50:11;13.30;95.30
9095;DHT22;4583;49.796;9.902;2023-04-24T04:00:13;13.30;95.50
9095;DHT22;4583;49.796;9.902;2023-04-24T04:10:16;13.10;95.50
9095;DHT22;4583;49.796;9.902;2023-04-24T04:20:18;13.10;95.40
9095;DHT22;4583;49.796;9.902;2023-04-24T04:30:20;13.10;95.60
9095;DHT22;4583;49.796;9.902;2023-04-24T04:40:22;13.10;95.60
9095;DHT22;4583;49.796;9.902;2023-04-24T04:50:24;13.20;95.70
9095;DHT22;4583;49.796;9.902;2023-04-24T05:00:26;13.10;95.50
9095;DHT22;4583;49.796;9.902;2023-04-24T05:10:28;13.00;96.10
9095;DHT22;4583;49.796;9.902;2023-04-24T05:20:30;13.10;95.90
9095;DHT22;4583;49.796;9.902;2023-04-24T05:30:32;13.00;95.50
9095;DHT22;4583;49.796;9.902;2023-04-24T05:40:33;12.90;94.90
9095;DHT22;4583;49.796;9.902;2023-04-24T05:50:35;12.70;93.70
9095;DHT22;4583;49.796;9.902;2023-04-24T06:00:38;12.70;94.00
9095;DHT22;4583;49.796;9.902;2023-04-24T06:10:42;12.50;93.60
9095;DHT22;4583;49.796;9.902;2023-04-24T06:20:47;12.50;93.20
9095;DHT22;4583;49.796;9.902;2023-04-24T06:30:49;12.80;92.80
9095;DHT22;4583;49.796;9.902;2023-04-24T06:40:51;12.80;90.70
9095;DHT22;4583;49.796;9.902;2023-04-24T06:50:52;13.70;91.50
9095;DHT22;4583;49.796;9.902;2023-04-24T07:00:54;13.10;89.70
9095;DHT22;4583;49.796;9.902;2023-04-24T07:10:56;13.10;89.20
9095;DHT22;4583;49.796;9.902;2023-04-24T07:20:58;13.20;87.40
9095;DHT22;4583;49.796;9.902;2023-04-24T07:31:00;13.60;85.00
9095;DHT22;4583;49.796;9.902;2023-04-24T07:41:02;13.90;83.60
9095;DHT22;4583;49.796;9.902;2023-04-24T07:51:03;13.80;83.30
9095;DHT22;4583;49.796;9.902;2023-04-24T08:01:06;13.90;83.10
9095;DHT22;4583;49.796;9.902;2023-04-24T08:11:08;13.90;82.10
9095;DHT22;4583;49.796;9.902;2023-04-24T08:21:09;13.80;82.30
9095;DHT22;4583;49.796;9.902;2023-04-24T08:51:17;13.90;83.30
9095;DHT22;4583;49.796;9.902;2023-04-24T09:01:20;14.00;84.20
9095;DHT22;4583;49.796;9.902;2023-04-24T09:11:23;14.10;82.50
9095;DHT22;4583;49.796;9.902;2023-04-24T09:21:32;14.20;79.70
9095;DHT22;4583;49.796;9.902;2023-04-24T09:41:50;14.70;77.40
9095;DHT22;4583;49.796;9.902;2023-04-24T09:52:04;14.80;74.40
9095;DHT22;4583;49.796;9.902;2023-04-24T10:02:18;14.50;73.20
9095;DHT22;4583;49.796;9.902;2023-04-24T10:12:21;14.60;72.00
9095;DHT22;4583;49.796;9.902;2023-04-24T10:22:23;15.00;70.50
9095;DHT22;4583;49.796;9.902;2023-04-24T10:32:25;14.90;66.50
9095;DHT22;4583;49.796;9.902;2023-04-24T10:42:28;14.50;66.90
9095;DHT22;4583;49.796;9.902;2023-04-24T10:52:46;14.20;67.30
9095;DHT22;4583;49.796;9.902;2023-04-24T11:02:48;14.20;67.10
9095;DHT22;4583;49.796;9.902;2023-04-24T11:12:52;14.40;67.70
9095;DHT22;4583;49.796;9.902;2023-04-24T11:22:54;14.40;66.80
9095;DHT22;4583;49.796;9.902;2023-04-24T11:33:02;14.20;67.40
9095;DHT22;4583;49.796;9.902;2023-04-24T11:43:04;14.40;68.30
9095;DHT22;4583;49.796;9.902;2023-04-24T11:53:08;14.50;67.60
9095;DHT22;4583;49.796;9.902;2023-04-24T12:03:11;14.30;68.60
9095;DHT22;4583;49.796;9.902;2023-04-24T12:13:13;14.70;70.20
9095;DHT22;4583;49.796;9.902;2023-04-24T12:23:16;14.80;70.50
9095;DHT22;4583;49.796;9.902;2023-04-24T12:33:19;15.30;67.10
9095;DHT22;4583;49.796;9.902;2023-04-24T12:43:21;15.30;67.10
9095;DHT22;4583;49.796;9.902;2023-04-24T12:53:23;15.60;65.60
9095;DHT22;4583;49.796;9.902;2023-04-24T13:03:28;14.80;63.40
9095;DHT22;4583;49.796;9.902;2023-04-24T13:13:30;14.30;65.10
9095;DHT22;4583;49.796;9.902;2023-04-24T13:23:31;14.30;65.70
9095;DHT22;4583;49.796;9.902;2023-04-24T13:33:33;14.50;65.80
9095;DHT22;4583;49.796;9.902;2023-04-24T13:43:35;14.70;66.10
9095;DHT22;4583;49.796;9.902;2023-04-24T13:53:37;14.40;65.40
9095;DHT22;4583;49.796;9.902;2023-04-24T14:03:42;14.30;65.90
9095;DHT22;4583;49.796;9.902;2023-04-24T14:13:46;13.40;71.60
9095;DHT22;4583;49.796;9.902;2023-04-24T14:23:47;13.20;74.30
9095;DHT22;4583;49.796;9.902;2023-04-24T14:33:49;17.30;75.00
9095;DHT22;4583;49.796;9.902;2023-04-24T14:43:51;25.10;53.30
9095;DHT22;4583;49.796;9.902;2023-04-24T14:53:52;21.00;50.70
9095;DHT22;4583;49.796;9.902;2023-04-24T15:23:59;16.30;59.50
9095;DHT22;4583;49.796;9.902;2023-04-24T15:54:05;15.10;57.50
9095;DHT22;4583;49.796;9.902;2023-04-24T16:04:07;15.20;58.20
9095;DHT22;4583;49.796;9.902;2023-04-24T16:14:09;15.20;58.90
9095;DHT22;4583;49.796;9.902;2023-04-24T16:24:11;18.40;56.80
9095;DHT22;4583;49.796;9.902;2023-04-24T16:34:13;18.40;57.20
9095;DHT22;4583;49.796;9.902;2023-04-24T16:44:15;16.10;56.50
9095;DHT22;4583;49.796;9.902;2023-04-24T16:54:16;16.20;57.10
9095;DHT22;4583;49.796;9.902;2023-04-24T17:04:18;18.70;53.40
9095;DHT22;4583;49.796;9.902;2023-04-24T17:14:20;18.60;53.90
9095;DHT22;4583;49.796;9.902;2023-04-24T17:24:23;16.50;55.80
9095;DHT22;4583;49.796;9.902;2023-04-24T17:34:25;15.00;58.60
9095;DHT22;4583;49.796;9.902;2023-04-24T17:44:27;14.40;61.40
9095;DHT22;4583;49.796;9.902;2023-04-24T17:54:28;14.40;62.00
9095;DHT22;4583;49.796;9.902;2023-04-24T18:04:30;13.60;65.10
9095;DHT22;4583;49.796;9.902;2023-04-24T18:14:32;13.30;66.80
9095;DHT22;4583;49.796;9.902;2023-04-24T18:34:36;13.00;68.50
9095;DHT22;4583;49.796;9.902;2023-04-24T18:44:38;12.80;69.50
9095;DHT22;4583;49.796;9.902;2023-04-24T18:54:41;12.90;70.30
9095;DHT22;4583;49.796;9.902;2023-04-24T19:04:43;12.60;71.70
9095;DHT22;4583;49.796;9.902;2023-04-24T19:14:45;12.70;72.60
9095;DHT22;4583;49.796;9.902;2023-04-24T19:24:47;12.60;73.00
9095;DHT22;4583;49.796;9.902;2023-04-24T19:34:49;12.70;73.40
9095;DHT22;4583;49.796;9.902;2023-04-24T19:44:50;12.60;74.90
9095;DHT22;4583;49.796;9.902;2023-04-24T19:54:52;12.70;75.40
9095;DHT22;4583;49.796;9.902;2023-04-24T20:04:54;12.60;76.20
9095;DHT22;4583;49.796;9.902;2023-04-24T20:14:57;12.40;76.60
9095;DHT22;4583;49.796;9.902;2023-04-24T20:24:59;12.30;77.00
9095;DHT22;4583;49.796;9.902;2023-04-24T20:35:00;12.30;77.70
9095;DHT22;4583;49.796;9.902;2023-04-24T20:45:02;12.20;78.70
9095;DHT22;4583;49.796;9.902;2023-04-24T20:55:05;12.00;82.70
9095;DHT22;4583;49.796;9.902;2023-04-24T21:05:07;11.90;85.30
9095;DHT22;4583;49.796;9.902;2023-04-24T21:15:09;11.90;87.10
9095;DHT22;4583;49.796;9.902;2023-04-24T21:25:11;11.90;87.70
9095;DHT22;4583;49.796;9.902;2023-04-24T21:35:13;12.00;89.10
9095;DHT22;4583;49.796;9.902;2023-04-24T21:45:15;12.00;90.30
9095;DHT22;4583;49.796;9.902;2023-04-24T21:55:16;12.00;90.60
9095;DHT22;4583;49.796;9.902;2023-04-24T22:05:18;12.00;91.00
9095;DHT22;4583;49.796;9.902;2023-04-24T22:15:20;11.90;91.30
9095;DHT22;4583;49.796;9.902;2023-04-24T22:25:22;11.60;91.20
9095;DHT22;4583;49.796;9.902;2023-04-24T22:35:24;11.60;91.50
9095;DHT22;4583;49.796;9.902;2023-04-24T22:45:26;11.50;91.70
9095;DHT22;4583;49.796;9.902;2023-04-24T22:55:28;11.50;92.10
9095;DHT22;4583;49.796;9.902;2023-04-24T23:05:30;11.60;91.90
9095;DHT22;4583;49.796;9.902;2023-04-24T23:15:31;11.70;92.10
9095;DHT22;4583;49.796;9.902;2023-04-24T23:25:33;11.70;92.10
9095;DHT22;4583;49.796;9.902;2023-04-24T23:35:35;11.70;92.30
9095;DHT22;4583;49.796;9.902;2023-04-24T23:45:37;11.60;91.90
9095;DHT22;4583;49.796;9.902;2023-04-24T23:55:39;11.60;92.20
